createdAt,value
2023-03-17T08:29:12.706Z,5.65
2023-03-17T08:31:41.158Z,4.97
2023-03-17T08:34:08.709Z,4.88
2023-03-17T08:36:36.218Z,5.53
2023-03-17T08:39:04.743Z,6.05
2023-03-17T08:44:00.206Z,5.97
2023-03-17T08:46:29.485Z,5.53
2023-03-17T08:48:58.103Z,6.72
2023-03-17T08:51:26.817Z,5.78
2023-03-17T08:53:55.083Z,5.97
2023-03-17T08:56:22.901Z,5.78
2023-03-17T08:58:51.700Z,6.07
2023-03-17T09:01:21.001Z,5.90
2023-03-17T09:03:49.682Z,5.63
2023-03-17T09:06:17.156Z,5.30
2023-03-17T09:08:47.454Z,6.07
2023-03-17T09:11:17.221Z,5.97
2023-03-17T09:13:46.486Z,5.03
2023-03-17T09:16:14.889Z,4.22
2023-03-17T09:18:42.552Z,5.25
2023-03-17T09:21:11.109Z,5.18
2023-03-17T09:26:05.857Z,4.63
2023-03-17T09:28:33.963Z,5.18
2023-03-17T09:31:02.505Z,3.80
2023-03-17T09:35:57.842Z,4.28
2023-03-17T09:38:26.460Z,3.53
2023-03-17T09:40:57.472Z,4.00
2023-03-17T09:43:25.014Z,4.85
2023-03-17T09:45:52.643Z,4.43
2023-03-17T09:48:40.001Z,4.13
2023-03-17T09:51:10.303Z,4.93
2023-03-17T09:53:59.953Z,4.18
2023-03-17T09:56:29.199Z,3.67
2023-03-17T09:59:04.082Z,2.80
2023-03-17T10:01:32.338Z,3.78
2023-03-17T10:03:59.759Z,3.60
2023-03-17T10:06:28.193Z,3.13
2023-03-17T10:09:01.709Z,2.35
2023-03-17T10:11:42.807Z,3.42
2023-03-17T10:14:33.759Z,3.00
2023-03-17T10:17:02.021Z,2.42
2023-03-17T10:19:32.597Z,3.33
2023-03-17T10:22:03.131Z,2.88
2023-03-17T10:24:32.773Z,2.75
2023-03-17T10:27:04.823Z,2.58
2023-03-17T10:29:32.750Z,2.50
2023-03-17T10:32:00.083Z,2.75
2023-03-17T10:34:38.010Z,3.10
2023-03-17T10:37:29.712Z,2.65
2023-03-17T10:39:57.739Z,3.70
2023-03-17T10:42:30.341Z,3.22
2023-03-17T10:45:01.697Z,2.75
2023-03-17T10:47:40.657Z,2.90
2023-03-17T10:50:23.009Z,2.90
2023-03-17T10:52:57.929Z,2.63
2023-03-17T10:55:29.504Z,2.33
2023-03-17T10:58:06.844Z,2.55
2023-03-17T11:00:37.222Z,2.78
2023-03-17T11:03:25.528Z,2.60
2023-03-17T11:08:25.010Z,2.42
2023-03-17T11:10:57.035Z,2.38
2023-03-17T11:13:30.594Z,2.72
2023-03-17T11:16:10.803Z,2.33
2023-03-17T11:18:39.771Z,2.05
2023-03-17T11:21:26.834Z,2.53
2023-03-17T11:24:24.056Z,2.00
2023-03-17T11:27:15.413Z,1.97
2023-03-17T11:30:16.776Z,1.92
2023-03-17T11:32:50.273Z,1.63
2023-03-17T11:35:17.476Z,1.73
2023-03-17T11:37:56.767Z,1.67
2023-03-17T11:41:06.738Z,2.38
2023-03-17T11:44:01.641Z,1.75
2023-03-17T11:46:49.014Z,1.70
2023-03-17T11:49:28.643Z,1.80
2023-03-17T11:52:07.593Z,2.10
2023-03-17T11:55:12.000Z,1.98
2023-03-17T11:57:52.318Z,1.30
2023-03-17T12:00:28.014Z,1.95
2023-03-17T12:02:58.558Z,1.52
2023-03-17T12:05:28.577Z,2.03
2023-03-17T12:08:39.339Z,1.90
2023-03-17T12:11:20.584Z,1.55
2023-03-17T12:13:53.316Z,1.60
2023-03-17T12:16:38.656Z,1.40
2023-03-17T12:19:29.860Z,1.45
2023-03-17T12:22:22.793Z,2.00
2023-03-17T12:25:35.091Z,1.92
2023-03-17T12:28:16.409Z,2.05
2023-03-17T12:31:06.001Z,2.25
2023-03-17T12:33:48.624Z,1.50
2023-03-17T12:36:17.814Z,1.50
2023-03-17T12:38:53.903Z,1.50
2023-03-17T12:41:23.765Z,1.40
2023-03-17T12:44:03.679Z,1.65
2023-03-17T12:46:49.536Z,2.08
2023-03-17T12:49:35.495Z,1.77
2023-03-17T12:52:21.124Z,1.33
2023-03-17T12:54:52.056Z,1.70
2023-03-17T12:57:22.741Z,1.40
2023-03-17T12:59:57.695Z,1.50
2023-03-17T13:02:36.735Z,1.77
2023-03-17T13:05:14.132Z,2.08
2023-03-17T13:07:41.273Z,1.45
2023-03-17T13:10:21.098Z,1.70
2023-03-17T13:12:48.045Z,1.70
2023-03-17T13:15:38.275Z,1.42
2023-03-17T13:18:17.221Z,1.80
2023-03-17T13:20:56.629Z,1.33
2023-03-17T13:23:45.810Z,1.67
2023-03-17T13:26:21.222Z,1.73
2023-03-17T13:28:51.016Z,1.25
2023-03-17T13:31:27.256Z,1.30
2023-03-17T13:33:56.748Z,1.50
2023-03-17T13:36:38.883Z,2.03
2023-03-17T13:40:04.753Z,1.45
2023-03-17T13:42:48.086Z,1.92
2023-03-17T13:45:47.647Z,1.75
2023-03-17T13:48:20.913Z,1.55
2023-03-17T13:50:48.116Z,1.23
2023-03-17T13:53:15.868Z,1.65
2023-03-17T13:56:03.631Z,1.10
2023-03-17T13:58:34.794Z,1.20
2023-03-17T14:01:07.321Z,2.00
2023-03-17T14:03:41.430Z,1.42
2023-03-17T14:06:12.505Z,1.30
2023-03-17T14:08:46.128Z,1.38
2023-03-17T14:11:37.896Z,1.50
2023-03-17T14:14:07.983Z,1.70
2023-03-17T14:16:42.089Z,1.90
2023-03-17T14:19:29.868Z,1.73
2023-03-17T14:22:04.774Z,1.80
2023-03-17T14:24:34.152Z,1.90
2023-03-17T14:27:09.658Z,1.83
2023-03-17T14:29:37.972Z,1.75
2023-03-17T14:32:16.017Z,1.42
2023-03-17T14:34:57.824Z,1.40
2023-03-17T14:37:27.083Z,1.90
2023-03-17T14:39:59.048Z,1.38
2023-03-17T14:42:29.015Z,1.75
2023-03-17T14:45:06.675Z,1.65
2023-03-17T14:47:41.705Z,1.48
2023-03-17T14:50:20.758Z,1.50
2023-03-17T14:52:50.463Z,1.90
2023-03-17T14:55:19.875Z,1.45
2023-03-17T14:57:52.448Z,1.10
2023-03-17T15:00:38.079Z,1.27
2023-03-17T15:03:20.697Z,1.60
2023-03-17T15:05:48.948Z,1.40
2023-03-17T15:08:34.571Z,2.00
2023-03-17T15:11:05.708Z,1.40
2023-03-17T15:13:38.468Z,1.25
2023-03-17T15:16:26.893Z,1.40
2023-03-17T15:19:22.198Z,1.20
2023-03-17T15:21:52.666Z,1.63
2023-03-17T15:24:39.577Z,1.55
2023-03-17T15:27:18.464Z,1.83
2023-03-17T15:29:45.961Z,1.80
2023-03-17T15:32:16.260Z,1.30
2023-03-17T15:34:43.335Z,1.55
2023-03-17T15:37:25.485Z,1.60
2023-03-17T15:39:53.791Z,1.27
2023-03-17T15:42:22.757Z,1.83
2023-03-17T15:44:50.101Z,1.30
2023-03-17T15:47:19.939Z,1.52
2023-03-17T15:49:49.032Z,1.75
2023-03-17T15:52:27.396Z,1.50
2023-03-17T15:57:23.941Z,1.05
2023-03-17T15:59:51.209Z,0.95
2023-03-17T16:02:31.864Z,1.70
2023-03-17T16:05:07.410Z,1.10
2023-03-17T16:07:34.397Z,1.05
2023-03-17T16:10:01.533Z,1.73
2023-03-17T16:12:28.597Z,1.20
2023-03-17T16:14:55.739Z,1.17
2023-03-17T16:17:28.900Z,1.30
2023-03-17T16:19:59.748Z,1.25
2023-03-17T16:22:39.665Z,1.10
2023-03-17T16:25:31.850Z,1.10
2023-03-17T16:28:01.097Z,1.15
2023-03-17T16:30:32.122Z,1.33
2023-03-17T16:33:09.188Z,1.27
2023-03-17T16:35:36.393Z,0.93
2023-03-17T16:38:03.442Z,1.20
2023-03-17T16:40:35.946Z,0.85
2023-03-17T16:43:19.127Z,1.00
2023-03-17T16:45:53.992Z,0.70
2023-03-17T16:48:21.663Z,1.15
2023-03-17T16:50:49.317Z,0.90
2023-03-17T16:53:16.433Z,1.23
2023-03-17T16:55:45.111Z,0.80
2023-03-17T16:58:19.633Z,0.90
2023-03-17T17:00:48.069Z,1.00
2023-03-17T17:05:43.222Z,0.95
2023-03-17T17:08:10.675Z,1.20
2023-03-17T17:10:38.260Z,1.00
2023-03-17T17:13:07.816Z,1.20
2023-03-17T17:15:36.798Z,0.80
2023-03-17T17:18:12.906Z,1.10
2023-03-17T17:20:41.047Z,1.20
2023-03-17T17:23:13.235Z,1.42
2023-03-17T17:25:41.395Z,1.10
2023-03-17T17:28:09.320Z,1.10
2023-03-17T17:30:36.695Z,1.17
2023-03-17T17:33:04.488Z,1.00
2023-03-17T17:35:33.259Z,1.20
2023-03-17T17:38:02.171Z,1.23
2023-03-17T17:40:30.757Z,1.10
2023-03-17T17:42:58.243Z,0.90
2023-03-17T17:45:25.936Z,1.00
2023-03-17T17:47:53.013Z,1.00
2023-03-17T17:50:30.587Z,1.63
2023-03-17T17:53:04.894Z,1.77
2023-03-17T17:55:33.881Z,1.65
2023-03-17T17:58:01.336Z,1.60
2023-03-17T18:00:29.155Z,1.40
2023-03-17T18:02:56.645Z,1.20
2023-03-17T18:05:24.166Z,1.50
2023-03-17T18:07:51.548Z,1.33
2023-03-17T18:10:22.527Z,1.42
2023-03-17T18:12:51.082Z,1.40
2023-03-17T18:15:18.226Z,1.63
2023-03-17T18:17:45.284Z,1.27
2023-03-17T18:20:14.583Z,1.23
2023-03-17T18:22:41.919Z,1.50
2023-03-17T18:25:12.163Z,1.30
2023-03-17T18:27:39.617Z,1.65
2023-03-17T18:30:09.463Z,1.40
2023-03-17T18:32:37.720Z,1.50
2023-03-17T18:35:09.382Z,1.40
2023-03-17T18:37:38.056Z,1.38
2023-03-17T18:40:14.482Z,1.63
2023-03-17T18:42:43.468Z,2.05
2023-03-17T18:45:11.740Z,1.80
2023-03-17T18:47:39.194Z,1.90
2023-03-17T18:50:08.139Z,2.20
2023-03-17T18:52:37.936Z,1.90
2023-03-17T18:55:06.733Z,2.42
2023-03-17T18:57:34.166Z,2.15
2023-03-17T19:00:01.324Z,2.38
2023-03-17T19:02:28.378Z,2.45
2023-03-17T19:04:55.482Z,2.10
2023-03-17T19:07:22.514Z,2.58
2023-03-17T19:09:49.672Z,2.50
2023-03-17T19:12:17.046Z,2.60
2023-03-17T19:14:44.624Z,2.28
2023-03-17T19:17:11.824Z,1.83
2023-03-17T19:19:39.165Z,2.47
2023-03-17T19:22:07.810Z,2.13
2023-03-17T19:24:36.234Z,2.38
2023-03-17T19:27:03.917Z,1.83
2023-03-17T19:29:31.121Z,2.23
2023-03-17T19:31:58.099Z,1.83
2023-03-17T19:34:25.139Z,2.28
2023-03-17T19:37:02.577Z,2.20
2023-03-17T19:39:33.917Z,1.90
2023-03-17T19:42:01.564Z,2.20
2023-03-17T19:44:28.706Z,2.00
2023-03-17T19:46:55.932Z,1.92
2023-03-17T19:49:23.096Z,2.30
2023-03-17T19:51:50.454Z,2.30
2023-03-17T19:54:18.835Z,2.72
2023-03-17T19:56:45.973Z,2.20
2023-03-17T19:59:15.038Z,2.60
2023-03-17T20:01:42.764Z,2.28
2023-03-17T20:04:11.636Z,2.30
2023-03-17T20:06:38.813Z,2.15
2023-03-17T20:09:08.785Z,2.70
2023-03-17T20:11:36.169Z,2.35
2023-03-17T20:14:03.790Z,2.67
2023-03-17T20:16:33.707Z,2.60
2023-03-17T20:19:01.651Z,3.10
2023-03-17T20:21:28.917Z,2.90
2023-03-17T20:23:56.919Z,3.83
2023-03-17T20:26:24.612Z,7.60
2023-03-17T20:28:52.148Z,6.03
2023-03-17T20:31:19.474Z,4.95
2023-03-17T20:33:46.626Z,4.75
2023-03-17T20:36:14.100Z,3.92
2023-03-17T20:38:43.767Z,4.53
2023-03-17T20:41:17.271Z,3.78
2023-03-17T20:43:46.168Z,4.03
2023-03-17T20:46:19.925Z,3.85
2023-03-17T20:48:48.302Z,4.93
2023-03-17T20:51:16.904Z,4.30
2023-03-17T20:56:15.523Z,5.35
2023-03-17T20:58:47.124Z,4.95
2023-03-17T21:01:15.860Z,4.93
2023-03-17T21:03:45.322Z,5.18
2023-03-17T21:06:12.768Z,5.10
2023-03-17T21:08:40.183Z,5.13
2023-03-17T21:11:08.673Z,4.30
2023-03-17T21:16:03.136Z,4.45
2023-03-17T21:18:30.524Z,6.78
2023-03-17T21:21:04.255Z,6.22
2023-03-17T21:23:31.985Z,5.35
2023-03-17T21:25:59.062Z,6.70
2023-03-17T21:28:26.181Z,5.90
2023-03-17T21:30:53.357Z,5.78
2023-03-17T21:33:21.528Z,5.60
2023-03-17T21:35:48.710Z,5.40
2023-03-17T21:38:15.943Z,4.72
2023-03-17T21:40:43.162Z,5.28
2023-03-17T21:43:10.902Z,5.88
2023-03-17T21:45:39.059Z,4.38
2023-03-17T21:48:06.291Z,5.00
2023-03-17T21:50:33.970Z,4.40
2023-03-17T21:53:01.706Z,4.23
2023-03-17T21:55:28.890Z,5.03
2023-03-17T21:57:55.944Z,4.28
2023-03-17T22:00:23.629Z,5.50
2023-03-17T22:05:19.254Z,5.00
2023-03-17T22:07:46.310Z,5.22
2023-03-17T22:10:13.582Z,4.93
2023-03-17T22:12:40.834Z,4.18
2023-03-17T22:15:10.331Z,4.70
2023-03-17T22:17:38.215Z,4.78
2023-03-17T22:20:08.006Z,4.53
2023-03-17T22:22:35.893Z,4.93
2023-03-17T22:25:05.628Z,4.05
2023-03-17T22:27:33.699Z,4.72
2023-03-17T22:30:01.004Z,4.47
2023-03-17T22:32:28.263Z,4.45
2023-03-17T22:34:55.438Z,4.25
2023-03-17T22:37:22.535Z,4.40
2023-03-17T22:39:50.220Z,4.32
2023-03-17T22:42:17.335Z,4.15
2023-03-17T22:44:44.415Z,3.58
2023-03-17T22:47:11.689Z,4.80
2023-03-17T22:49:38.763Z,7.05
2023-03-17T22:52:06.130Z,8.18
2023-03-17T22:54:33.237Z,7.15
2023-03-17T22:57:00.639Z,6.53
2023-03-17T22:59:27.757Z,5.15
2023-03-17T23:01:54.840Z,4.95
2023-03-17T23:04:22.056Z,4.95
2023-03-17T23:06:49.382Z,4.68
2023-03-17T23:09:16.685Z,4.63
2023-03-17T23:11:49.920Z,4.07
2023-03-17T23:14:17.074Z,4.53
2023-03-17T23:16:45.107Z,4.13
2023-03-17T23:19:12.202Z,4.40
2023-03-17T23:21:39.912Z,4.93
2023-03-17T23:24:08.608Z,4.80
2023-03-17T23:26:37.139Z,3.65
2023-03-17T23:31:32.356Z,6.20
2023-03-17T23:33:59.823Z,6.57
2023-03-17T23:36:27.032Z,5.03
2023-03-17T23:38:54.287Z,4.70
2023-03-17T23:41:22.729Z,4.40
2023-03-17T23:46:17.386Z,3.70
2023-03-17T23:48:44.959Z,3.92
2023-03-17T23:51:12.907Z,3.70
2023-03-17T23:53:40.259Z,3.40
2023-03-17T23:56:08.478Z,3.40
2023-03-17T23:58:36.207Z,3.92
